sensor_id;sensor_type;location;lat;lon;timestamp;temperature;humidity
5588;DHT22;2816;49.778;9.986;2023-05-14T00:01:54;10.70;99.90
5588;DHT22;2816;49.778;9.986;2023-05-14T00:04:21;10.70;99.90
5588;DHT22;2816;49.778;9.986;2023-05-14T00:06:48;10.70;99.90
5588;DHT22;2816;49.778;9.986;2023-05-14T00:09:15;10.60;99.90
5588;DHT22;2816;49.778;9.986;2023-05-14T00:11:42;10.60;99.90
5588;DHT22;2816;49.778;9.986;2023-05-14T00:14:09;10.50;99.90
5588;DHT22;2816;49.778;9.986;2023-05-14T00:16:36;10.50;99.90
5588;DHT22;2816;49.778;9.986;2023-05-14T00:19:04;10.50;99.90
5588;DHT22;2816;49.778;9.986;2023-05-14T00:21:31;10.40;99.90
5588;DHT22;2816;49.778;9.986;2023-05-14T00:23:58;10.40;99.90
5588;DHT22;2816;49.778;9.986;2023-05-14T00:26:25;10.40;99.90
5588;DHT22;2816;49.778;9.986;2023-05-14T00:28:52;10.40;99.90
5588;DHT22;2816;49.778;9.986;2023-05-14T00:31:19;10.30;99.90
5588;DHT22;2816;49.778;9.986;2023-05-14T00:33:47;10.30;99.90
5588;DHT22;2816;49.778;9.986;2023-05-14T00:36:15;10.30;99.90
5588;DHT22;2816;49.778;9.986;2023-05-14T00:38:42;10.30;99.90
5588;DHT22;2816;49.778;9.986;2023-05-14T00:41:09;10.30;99.90
5588;DHT22;2816;49.778;9.986;2023-05-14T00:43:35;10.30;99.90
5588;DHT22;2816;49.778;9.986;2023-05-14T00:46:02;10.30;99.90
5588;DHT22;2816;49.778;9.986;2023-05-14T00:48:29;10.20;99.90
5588;DHT22;2816;49.778;9.986;2023-05-14T00:50:57;10.20;99.90
5588;DHT22;2816;49.778;9.986;2023-05-14T00:53:25;10.20;99.90
5588;DHT22;2816;49.778;9.986;2023-05-14T00:55:53;10.10;99.90
5588;DHT22;2816;49.778;9.986;2023-05-14T00:58:21;10.20;99.90
5588;DHT22;2816;49.778;9.986;2023-05-14T01:00:48;10.10;99.90
5588;DHT22;2816;49.778;9.986;2023-05-14T01:03:15;10.10;99.90
5588;DHT22;2816;49.778;9.986;2023-05-14T01:05:47;10.10;99.90
5588;DHT22;2816;49.778;9.986;2023-05-14T01:08:24;10.00;99.90
5588;DHT22;2816;49.778;9.986;2023-05-14T01:10:59;10.00;99.90
5588;DHT22;2816;49.778;9.986;2023-05-14T01:13:35;10.00;99.90
5588;DHT22;2816;49.778;9.986;2023-05-14T01:16:07;10.00;99.90
5588;DHT22;2816;49.778;9.986;2023-05-14T01:18:39;10.00;99.90
5588;DHT22;2816;49.778;9.986;2023-05-14T01:23:47;10.00;99.90
5588;DHT22;2816;49.778;9.986;2023-05-14T01:26:14;10.00;99.90
5588;DHT22;2816;49.778;9.986;2023-05-14T01:28:42;9.90;99.90
5588;DHT22;2816;49.778;9.986;2023-05-14T01:31:14;9.90;99.90
5588;DHT22;2816;49.778;9.986;2023-05-14T01:33:46;9.90;99.90
5588;DHT22;2816;49.778;9.986;2023-05-14T01:36:15;9.80;99.90
5588;DHT22;2816;49.778;9.986;2023-05-14T01:38:42;9.80;99.90
5588;DHT22;2816;49.778;9.986;2023-05-14T01:41:13;9.80;99.90
5588;DHT22;2816;49.778;9.986;2023-05-14T01:43:41;9.80;99.90
5588;DHT22;2816;49.778;9.986;2023-05-14T01:46:08;9.70;99.90
5588;DHT22;2816;49.778;9.986;2023-05-14T01:48:35;9.70;99.90
5588;DHT22;2816;49.778;9.986;2023-05-14T01:51:03;9.70;99.90
5588;DHT22;2816;49.778;9.986;2023-05-14T01:53:30;9.70;99.90
5588;DHT22;2816;49.778;9.986;2023-05-14T01:55:59;9.60;99.90
5588;DHT22;2816;49.778;9.986;2023-05-14T01:58:27;9.60;99.90
5588;DHT22;2816;49.778;9.986;2023-05-14T02:00:54;9.60;99.90
5588;DHT22;2816;49.778;9.986;2023-05-14T02:03:21;9.60;99.90
5588;DHT22;2816;49.778;9.986;2023-05-14T02:05:48;9.60;99.90
5588;DHT22;2816;49.778;9.986;2023-05-14T02:08:15;9.50;99.90
5588;DHT22;2816;49.778;9.986;2023-05-14T02:10:42;9.50;99.90
5588;DHT22;2816;49.778;9.986;2023-05-14T02:13:09;9.50;99.90
5588;DHT22;2816;49.778;9.986;2023-05-14T02:15:37;9.50;99.90
5588;DHT22;2816;49.778;9.986;2023-05-14T02:18:04;9.40;99.90
5588;DHT22;2816;49.778;9.986;2023-05-14T02:20:31;9.40;99.90
5588;DHT22;2816;49.778;9.986;2023-05-14T02:22:58;9.40;99.90
5588;DHT22;2816;49.778;9.986;2023-05-14T02:25:25;9.40;99.90
5588;DHT22;2816;49.778;9.986;2023-05-14T02:27:52;9.40;99.90
5588;DHT22;2816;49.778;9.986;2023-05-14T02:30:20;9.30;99.90
5588;DHT22;2816;49.778;9.986;2023-05-14T02:32:48;9.30;99.90
5588;DHT22;2816;49.778;9.986;2023-05-14T02:35:15;9.30;99.90
5588;DHT22;2816;49.778;9.986;2023-05-14T02:37:42;9.30;99.90
5588;DHT22;2816;49.778;9.986;2023-05-14T02:40:10;9.20;99.90
5588;DHT22;2816;49.778;9.986;2023-05-14T02:42:37;9.20;99.90
5588;DHT22;2816;49.778;9.986;2023-05-14T02:45:05;9.20;99.90
5588;DHT22;2816;49.778;9.986;2023-05-14T02:47:33;9.10;99.90
5588;DHT22;2816;49.778;9.986;2023-05-14T02:50:01;9.10;99.90
5588;DHT22;2816;49.778;9.986;2023-05-14T02:52:29;9.10;99.90
5588;DHT22;2816;49.778;9.986;2023-05-14T02:54:56;9.20;99.90
5588;DHT22;2816;49.778;9.986;2023-05-14T02:57:23;9.10;99.90
5588;DHT22;2816;49.778;9.986;2023-05-14T02:59:50;9.10;99.90
5588;DHT22;2816;49.778;9.986;2023-05-14T03:02:17;9.10;99.90
5588;DHT22;2816;49.778;9.986;2023-05-14T03:04:43;9.10;99.90
5588;DHT22;2816;49.778;9.986;2023-05-14T03:07:12;9.10;99.90
5588;DHT22;2816;49.778;9.986;2023-05-14T03:09:39;9.10;99.90
5588;DHT22;2816;49.778;9.986;2023-05-14T03:12:07;9.10;99.90
5588;DHT22;2816;49.778;9.986;2023-05-14T03:14:33;9.10;99.90
5588;DHT22;2816;49.778;9.986;2023-05-14T03:17:00;9.20;99.90
5588;DHT22;2816;49.778;9.986;2023-05-14T03:19:28;9.20;99.90
5588;DHT22;2816;49.778;9.986;2023-05-14T03:21:55;9.20;99.90
5588;DHT22;2816;49.778;9.986;2023-05-14T03:24:24;9.30;99.90
5588;DHT22;2816;49.778;9.986;2023-05-14T03:26:51;9.30;99.90
5588;DHT22;2816;49.778;9.986;2023-05-14T03:29:17;9.40;99.90
5588;DHT22;2816;49.778;9.986;2023-05-14T03:31:44;9.40;99.90
5588;DHT22;2816;49.778;9.986;2023-05-14T03:34:11;9.50;99.90
5588;DHT22;2816;49.778;9.986;2023-05-14T03:36:38;9.50;99.90
5588;DHT22;2816;49.778;9.986;2023-05-14T03:39:05;9.60;99.90
5588;DHT22;2816;49.778;9.986;2023-05-14T03:41:35;9.60;99.90
5588;DHT22;2816;49.778;9.986;2023-05-14T03:44:02;9.70;99.90
5588;DHT22;2816;49.778;9.986;2023-05-14T03:46:30;9.70;99.90
5588;DHT22;2816;49.778;9.986;2023-05-14T03:48:57;9.80;99.90
5588;DHT22;2816;49.778;9.986;2023-05-14T03:51:24;9.80;99.90
5588;DHT22;2816;49.778;9.986;2023-05-14T03:53:51;9.80;99.90
5588;DHT22;2816;49.778;9.986;2023-05-14T03:56:18;9.80;99.90
5588;DHT22;2816;49.778;9.986;2023-05-14T03:58:46;9.90;99.90
5588;DHT22;2816;49.778;9.986;2023-05-14T04:01:13;9.90;99.90
5588;DHT22;2816;49.778;9.986;2023-05-14T04:03:40;9.90;99.90
5588;DHT22;2816;49.778;9.986;2023-05-14T04:06:07;10.00;99.90
5588;DHT22;2816;49.778;9.986;2023-05-14T04:08:34;10.00;99.90
5588;DHT22;2816;49.778;9.986;2023-05-14T04:11:01;10.00;99.90
5588;DHT22;2816;49.778;9.986;2023-05-14T04:13:28;10.10;99.90
5588;DHT22;2816;49.778;9.986;2023-05-14T04:15:56;10.10;99.90
5588;DHT22;2816;49.778;9.986;2023-05-14T04:18:24;10.10;99.90
5588;DHT22;2816;49.778;9.986;2023-05-14T04:20:50;10.20;99.90
5588;DHT22;2816;49.778;9.986;2023-05-14T04:23:17;10.20;99.90
5588;DHT22;2816;49.778;9.986;2023-05-14T04:25:44;10.20;99.90
5588;DHT22;2816;49.778;9.986;2023-05-14T04:28:11;10.20;99.90
5588;DHT22;2816;49.778;9.986;2023-05-14T04:30:38;10.20;99.90
5588;DHT22;2816;49.778;9.986;2023-05-14T04:33:06;10.20;99.90
5588;DHT22;2816;49.778;9.986;2023-05-14T04:35:33;10.30;99.90
5588;DHT22;2816;49.778;9.986;2023-05-14T04:38:00;10.30;99.90
5588;DHT22;2816;49.778;9.986;2023-05-14T04:40:28;10.30;99.90
5588;DHT22;2816;49.778;9.986;2023-05-14T04:42:55;10.40;99.90
5588;DHT22;2816;49.778;9.986;2023-05-14T04:45:22;10.40;99.90
5588;DHT22;2816;49.778;9.986;2023-05-14T04:47:51;10.40;99.90
5588;DHT22;2816;49.778;9.986;2023-05-14T04:50:20;10.40;99.90
5588;DHT22;2816;49.778;9.986;2023-05-14T04:52:46;10.50;99.90
5588;DHT22;2816;49.778;9.986;2023-05-14T04:55:14;10.50;99.90
5588;DHT22;2816;49.778;9.986;2023-05-14T04:57:40;10.50;99.90
5588;DHT22;2816;49.778;9.986;2023-05-14T05:00:09;10.50;99.90
5588;DHT22;2816;49.778;9.986;2023-05-14T05:02:36;10.50;99.90
5588;DHT22;2816;49.778;9.986;2023-05-14T05:05:03;10.50;99.90
5588;DHT22;2816;49.778;9.986;2023-05-14T05:07:32;10.50;99.90
5588;DHT22;2816;49.778;9.986;2023-05-14T05:09:59;10.50;99.90
5588;DHT22;2816;49.778;9.986;2023-05-14T05:12:26;10.60;99.90
5588;DHT22;2816;49.778;9.986;2023-05-14T05:14:54;10.60;99.90
5588;DHT22;2816;49.778;9.986;2023-05-14T05:17:21;10.60;99.90
5588;DHT22;2816;49.778;9.986;2023-05-14T05:19:48;10.60;99.90
5588;DHT22;2816;49.778;9.986;2023-05-14T05:22:15;10.70;99.90
5588;DHT22;2816;49.778;9.986;2023-05-14T05:24:44;10.80;99.90
5588;DHT22;2816;49.778;9.986;2023-05-14T05:27:11;10.90;99.90
5588;DHT22;2816;49.778;9.986;2023-05-14T05:29:37;10.90;99.90
5588;DHT22;2816;49.778;9.986;2023-05-14T05:32:05;10.90;99.90
5588;DHT22;2816;49.778;9.986;2023-05-14T05:34:33;11.00;99.90
5588;DHT22;2816;49.778;9.986;2023-05-14T05:37:00;10.90;99.90
5588;DHT22;2816;49.778;9.986;2023-05-14T05:39:27;11.00;99.90
5588;DHT22;2816;49.778;9.986;2023-05-14T05:42:00;11.00;99.90
5588;DHT22;2816;49.778;9.986;2023-05-14T05:44:27;11.00;99.90
5588;DHT22;2816;49.778;9.986;2023-05-14T05:46:56;11.00;99.90
5588;DHT22;2816;49.778;9.986;2023-05-14T05:49:23;11.10;99.90
5588;DHT22;2816;49.778;9.986;2023-05-14T05:51:50;11.10;99.90
5588;DHT22;2816;49.778;9.986;2023-05-14T05:54:17;11.20;99.90
5588;DHT22;2816;49.778;9.986;2023-05-14T05:56:43;11.20;99.90
5588;DHT22;2816;49.778;9.986;2023-05-14T05:59:12;11.20;99.90
5588;DHT22;2816;49.778;9.986;2023-05-14T06:01:39;11.20;99.90
5588;DHT22;2816;49.778;9.986;2023-05-14T06:04:07;11.20;99.90
5588;DHT22;2816;49.778;9.986;2023-05-14T06:06:35;11.30;99.90
5588;DHT22;2816;49.778;9.986;2023-05-14T06:09:01;11.30;99.90
5588;DHT22;2816;49.778;9.986;2023-05-14T06:11:29;11.30;99.90
5588;DHT22;2816;49.778;9.986;2023-05-14T06:13:56;11.30;99.90
5588;DHT22;2816;49.778;9.986;2023-05-14T06:16:24;11.40;99.90
5588;DHT22;2816;49.778;9.986;2023-05-14T06:18:51;11.40;99.90
5588;DHT22;2816;49.778;9.986;2023-05-14T06:21:19;11.50;99.90
5588;DHT22;2816;49.778;9.986;2023-05-14T06:23:45;11.60;99.90
5588;DHT22;2816;49.778;9.986;2023-05-14T06:26:12;11.60;99.90
5588;DHT22;2816;49.778;9.986;2023-05-14T06:28:39;11.60;99.90
5588;DHT22;2816;49.778;9.986;2023-05-14T06:31:06;11.70;99.90
5588;DHT22;2816;49.778;9.986;2023-05-14T06:33:35;11.70;99.90
5588;DHT22;2816;49.778;9.986;2023-05-14T06:36:03;11.80;99.90
5588;DHT22;2816;49.778;9.986;2023-05-14T06:38:31;11.80;99.90
5588;DHT22;2816;49.778;9.986;2023-05-14T06:40:58;11.80;99.90
5588;DHT22;2816;49.778;9.986;2023-05-14T06:43:25;11.80;99.90
5588;DHT22;2816;49.778;9.986;2023-05-14T06:45:52;11.90;99.90
5588;DHT22;2816;49.778;9.986;2023-05-14T06:48:19;12.00;99.90
5588;DHT22;2816;49.778;9.986;2023-05-14T06:50:48;12.10;99.90
5588;DHT22;2816;49.778;9.986;2023-05-14T06:53:15;12.10;99.90
5588;DHT22;2816;49.778;9.986;2023-05-14T06:55:42;12.20;99.90
5588;DHT22;2816;49.778;9.986;2023-05-14T06:58:09;12.20;99.90
5588;DHT22;2816;49.778;9.986;2023-05-14T07:00:36;12.30;99.90
5588;DHT22;2816;49.778;9.986;2023-05-14T07:03:03;12.30;99.90
5588;DHT22;2816;49.778;9.986;2023-05-14T07:05:30;12.30;99.90
5588;DHT22;2816;49.778;9.986;2023-05-14T07:07:58;12.40;99.90
5588;DHT22;2816;49.778;9.986;2023-05-14T07:10:25;12.40;99.90
5588;DHT22;2816;49.778;9.986;2023-05-14T07:12:52;12.40;99.90
5588;DHT22;2816;49.778;9.986;2023-05-14T07:15:19;12.50;99.90
5588;DHT22;2816;49.778;9.986;2023-05-14T07:17:46;12.60;99.90
5588;DHT22;2816;49.778;9.986;2023-05-14T07:20:13;12.60;99.90
5588;DHT22;2816;49.778;9.986;2023-05-14T07:22:40;12.70;99.90
5588;DHT22;2816;49.778;9.986;2023-05-14T07:25:08;12.80;99.90
5588;DHT22;2816;49.778;9.986;2023-05-14T07:27:35;12.90;99.90
5588;DHT22;2816;49.778;9.986;2023-05-14T07:30:02;12.90;99.90
5588;DHT22;2816;49.778;9.986;2023-05-14T07:32:29;12.90;99.90
5588;DHT22;2816;49.778;9.986;2023-05-14T07:34:56;12.90;99.90
5588;DHT22;2816;49.778;9.986;2023-05-14T07:37:23;13.00;99.90
5588;DHT22;2816;49.778;9.986;2023-05-14T07:39:51;13.00;99.90
5588;DHT22;2816;49.778;9.986;2023-05-14T07:42:19;13.00;99.90
5588;DHT22;2816;49.778;9.986;2023-05-14T07:44:46;12.90;99.90
5588;DHT22;2816;49.778;9.986;2023-05-14T07:47:13;12.90;99.90
5588;DHT22;2816;49.778;9.986;2023-05-14T07:49:40;13.00;99.90
5588;DHT22;2816;49.778;9.986;2023-05-14T07:52:07;13.10;99.90
5588;DHT22;2816;49.778;9.986;2023-05-14T07:54:34;13.30;99.90
5588;DHT22;2816;49.778;9.986;2023-05-14T07:57:01;13.30;99.90
5588;DHT22;2816;49.778;9.986;2023-05-14T07:59:29;13.50;99.90
5588;DHT22;2816;49.778;9.986;2023-05-14T08:01:56;13.60;99.90
5588;DHT22;2816;49.778;9.986;2023-05-14T08:04:23;13.90;99.90
5588;DHT22;2816;49.778;9.986;2023-05-14T08:06:50;14.00;99.90
5588;DHT22;2816;49.778;9.986;2023-05-14T08:09:18;14.00;99.90
5588;DHT22;2816;49.778;9.986;2023-05-14T08:11:44;14.10;99.90
5588;DHT22;2816;49.778;9.986;2023-05-14T08:14:11;14.00;99.90
5588;DHT22;2816;49.778;9.986;2023-05-14T08:16:40;14.10;99.90
5588;DHT22;2816;49.778;9.986;2023-05-14T08:19:07;14.30;99.90
5588;DHT22;2816;49.778;9.986;2023-05-14T08:21:33;14.30;99.90
5588;DHT22;2816;49.778;9.986;2023-05-14T08:24:01;14.40;99.90
5588;DHT22;2816;49.778;9.986;2023-05-14T08:26:28;14.40;99.90
5588;DHT22;2816;49.778;9.986;2023-05-14T08:28:55;14.50;99.90
5588;DHT22;2816;49.778;9.986;2023-05-14T08:31:21;14.50;99.90
5588;DHT22;2816;49.778;9.986;2023-05-14T08:33:50;14.60;99.90
5588;DHT22;2816;49.778;9.986;2023-05-14T08:36:16;14.70;99.90
5588;DHT22;2816;49.778;9.986;2023-05-14T08:38:43;14.70;99.90
5588;DHT22;2816;49.778;9.986;2023-05-14T08:41:12;14.70;99.90
5588;DHT22;2816;49.778;9.986;2023-05-14T08:43:44;14.80;99.90
5588;DHT22;2816;49.778;9.986;2023-05-14T08:46:13;14.80;99.90
5588;DHT22;2816;49.778;9.986;2023-05-14T08:48:47;14.80;99.90
5588;DHT22;2816;49.778;9.986;2023-05-14T08:51:21;14.80;99.90
5588;DHT22;2816;49.778;9.986;2023-05-14T08:53:48;14.80;99.90
5588;DHT22;2816;49.778;9.986;2023-05-14T08:56:16;14.70;99.90
5588;DHT22;2816;49.778;9.986;2023-05-14T08:58:44;14.80;99.90
5588;DHT22;2816;49.778;9.986;2023-05-14T09:01:11;14.80;99.90
5588;DHT22;2816;49.778;9.986;2023-05-14T09:03:38;14.80;99.90
5588;DHT22;2816;49.778;9.986;2023-05-14T09:06:06;14.90;99.90
5588;DHT22;2816;49.778;9.986;2023-05-14T09:08:35;14.80;99.90
5588;DHT22;2816;49.778;9.986;2023-05-14T09:11:03;14.80;99.90
5588;DHT22;2816;49.778;9.986;2023-05-14T09:13:30;14.80;99.90
5588;DHT22;2816;49.778;9.986;2023-05-14T09:15:57;14.80;99.90
5588;DHT22;2816;49.778;9.986;2023-05-14T09:18:25;14.80;99.90
5588;DHT22;2816;49.778;9.986;2023-05-14T09:20:52;14.80;99.90
5588;DHT22;2816;49.778;9.986;2023-05-14T09:23:19;14.90;99.90
5588;DHT22;2816;49.778;9.986;2023-05-14T09:25:47;15.00;99.90
5588;DHT22;2816;49.778;9.986;2023-05-14T09:28:16;15.10;99.90
5588;DHT22;2816;49.778;9.986;2023-05-14T09:30:49;14.90;99.90
5588;DHT22;2816;49.778;9.986;2023-05-14T09:33:25;14.80;99.90
5588;DHT22;2816;49.778;9.986;2023-05-14T09:35:57;14.80;99.90
5588;DHT22;2816;49.778;9.986;2023-05-14T09:38:27;14.90;99.90
5588;DHT22;2816;49.778;9.986;2023-05-14T09:40:56;14.90;99.90
5588;DHT22;2816;49.778;9.986;2023-05-14T09:43:23;15.00;99.90
5588;DHT22;2816;49.778;9.986;2023-05-14T09:45:51;15.10;99.90
5588;DHT22;2816;49.778;9.986;2023-05-14T09:48:18;15.10;99.90
5588;DHT22;2816;49.778;9.986;2023-05-14T09:50:46;15.00;99.90
5588;DHT22;2816;49.778;9.986;2023-05-14T09:53:13;15.00;99.90
5588;DHT22;2816;49.778;9.986;2023-05-14T09:55:42;15.00;99.90
5588;DHT22;2816;49.778;9.986;2023-05-14T09:58:10;14.90;99.90
5588;DHT22;2816;49.778;9.986;2023-05-14T10:00:39;14.90;99.90
5588;DHT22;2816;49.778;9.986;2023-05-14T10:03:12;14.90;99.90
5588;DHT22;2816;49.778;9.986;2023-05-14T10:05:40;14.80;99.90
5588;DHT22;2816;49.778;9.986;2023-05-14T10:08:11;14.80;99.90
5588;DHT22;2816;49.778;9.986;2023-05-14T10:10:39;14.80;99.90
5588;DHT22;2816;49.778;9.986;2023-05-14T10:13:10;14.90;99.90
5588;DHT22;2816;49.778;9.986;2023-05-14T10:15:44;14.90;99.90
5588;DHT22;2816;49.778;9.986;2023-05-14T10:18:16;14.90;99.90
5588;DHT22;2816;49.778;9.986;2023-05-14T10:20:47;15.00;99.90
5588;DHT22;2816;49.778;9.986;2023-05-14T10:23:17;15.00;99.90
5588;DHT22;2816;49.778;9.986;2023-05-14T10:25:45;15.10;99.90
5588;DHT22;2816;49.778;9.986;2023-05-14T10:28:13;15.10;99.90
5588;DHT22;2816;49.778;9.986;2023-05-14T10:30:43;15.20;99.90
5588;DHT22;2816;49.778;9.986;2023-05-14T10:33:12;15.30;99.90
5588;DHT22;2816;49.778;9.986;2023-05-14T10:36:07;15.30;99.90
5588;DHT22;2816;49.778;9.986;2023-05-14T10:38:35;15.30;99.90
5588;DHT22;2816;49.778;9.986;2023-05-14T10:41:03;15.40;99.90
5588;DHT22;2816;49.778;9.986;2023-05-14T10:43:37;15.50;99.90
5588;DHT22;2816;49.778;9.986;2023-05-14T10:46:04;15.50;99.90
5588;DHT22;2816;49.778;9.986;2023-05-14T10:48:32;15.50;99.90
5588;DHT22;2816;49.778;9.986;2023-05-14T10:51:00;15.50;99.90
5588;DHT22;2816;49.778;9.986;2023-05-14T10:53:32;15.60;99.90
5588;DHT22;2816;49.778;9.986;2023-05-14T10:56:02;15.70;99.90
5588;DHT22;2816;49.778;9.986;2023-05-14T10:58:34;15.90;99.90
5588;DHT22;2816;49.778;9.986;2023-05-14T11:01:01;16.00;99.90
5588;DHT22;2816;49.778;9.986;2023-05-14T11:03:30;16.00;99.90
5588;DHT22;2816;49.778;9.986;2023-05-14T11:05:59;16.00;99.90
5588;DHT22;2816;49.778;9.986;2023-05-14T11:08:30;16.00;99.90
5588;DHT22;2816;49.778;9.986;2023-05-14T11:10:58;15.90;99.90
5588;DHT22;2816;49.778;9.986;2023-05-14T11:13:26;16.00;99.90
5588;DHT22;2816;49.778;9.986;2023-05-14T11:15:54;16.10;99.90
5588;DHT22;2816;49.778;9.986;2023-05-14T11:18:28;16.00;99.90
5588;DHT22;2816;49.778;9.986;2023-05-14T11:20:57;16.20;99.90
5588;DHT22;2816;49.778;9.986;2023-05-14T11:23:25;16.30;99.90
5588;DHT22;2816;49.778;9.986;2023-05-14T11:25:53;16.40;99.90
5588;DHT22;2816;49.778;9.986;2023-05-14T11:28:20;16.60;99.90
5588;DHT22;2816;49.778;9.986;2023-05-14T11:30:47;16.50;99.90
5588;DHT22;2816;49.778;9.986;2023-05-14T11:33:17;16.70;99.90
5588;DHT22;2816;49.778;9.986;2023-05-14T11:35:44;16.80;99.90
5588;DHT22;2816;49.778;9.986;2023-05-14T11:38:15;16.60;99.90
5588;DHT22;2816;49.778;9.986;2023-05-14T11:40:46;16.40;99.90
5588;DHT22;2816;49.778;9.986;2023-05-14T11:43:16;16.60;99.90
5588;DHT22;2816;49.778;9.986;2023-05-14T11:45:48;16.60;99.90
5588;DHT22;2816;49.778;9.986;2023-05-14T11:48:16;16.60;99.90
5588;DHT22;2816;49.778;9.986;2023-05-14T11:50:45;16.80;99.90
5588;DHT22;2816;49.778;9.986;2023-05-14T11:53:16;17.10;99.90
5588;DHT22;2816;49.778;9.986;2023-05-14T11:55:43;16.90;99.90
5588;DHT22;2816;49.778;9.986;2023-05-14T11:58:11;17.10;99.90
5588;DHT22;2816;49.778;9.986;2023-05-14T12:00:38;16.80;99.90
5588;DHT22;2816;49.778;9.986;2023-05-14T12:03:06;16.90;99.90
5588;DHT22;2816;49.778;9.986;2023-05-14T12:05:38;17.00;99.90
5588;DHT22;2816;49.778;9.986;2023-05-14T12:08:19;16.90;99.90
5588;DHT22;2816;49.778;9.986;2023-05-14T12:10:46;17.00;99.90
5588;DHT22;2816;49.778;9.986;2023-05-14T12:13:14;17.10;99.90
5588;DHT22;2816;49.778;9.986;2023-05-14T12:15:44;17.40;99.90
5588;DHT22;2816;49.778;9.986;2023-05-14T12:18:11;17.60;99.90
5588;DHT22;2816;49.778;9.986;2023-05-14T12:20:45;17.40;99.90
5588;DHT22;2816;49.778;9.986;2023-05-14T12:23:12;17.60;99.90
5588;DHT22;2816;49.778;9.986;2023-05-14T12:25:49;17.40;99.90
5588;DHT22;2816;49.778;9.986;2023-05-14T12:28:16;17.30;99.90
5588;DHT22;2816;49.778;9.986;2023-05-14T12:30:44;17.50;99.90
5588;DHT22;2816;49.778;9.986;2023-05-14T12:33:11;17.60;99.90
5588;DHT22;2816;49.778;9.986;2023-05-14T12:35:40;17.70;99.90
5588;DHT22;2816;49.778;9.986;2023-05-14T12:38:08;18.00;99.90
5588;DHT22;2816;49.778;9.986;2023-05-14T12:40:34;18.30;99.90
5588;DHT22;2816;49.778;9.986;2023-05-14T12:43:02;18.30;99.90
5588;DHT22;2816;49.778;9.986;2023-05-14T12:45:29;18.50;99.90
5588;DHT22;2816;49.778;9.986;2023-05-14T12:47:56;18.80;99.90
5588;DHT22;2816;49.778;9.986;2023-05-14T12:50:23;19.00;99.90
5588;DHT22;2816;49.778;9.986;2023-05-14T12:52:51;18.80;99.80
5588;DHT22;2816;49.778;9.986;2023-05-14T12:55:18;18.80;99.90
5588;DHT22;2816;49.778;9.986;2023-05-14T12:57:45;18.50;99.90
5588;DHT22;2816;49.778;9.986;2023-05-14T13:00:13;18.20;99.90
5588;DHT22;2816;49.778;9.986;2023-05-14T13:02:40;18.30;99.90
5588;DHT22;2816;49.778;9.986;2023-05-14T13:05:08;18.20;99.90
5588;DHT22;2816;49.778;9.986;2023-05-14T13:07:35;18.20;99.90
5588;DHT22;2816;49.778;9.986;2023-05-14T13:10:04;18.10;99.90
5588;DHT22;2816;49.778;9.986;2023-05-14T13:12:31;18.40;99.90
5588;DHT22;2816;49.778;9.986;2023-05-14T13:14:58;18.30;99.90
5588;DHT22;2816;49.778;9.986;2023-05-14T13:17:26;18.70;99.90
5588;DHT22;2816;49.778;9.986;2023-05-14T13:19:53;19.10;99.90
5588;DHT22;2816;49.778;9.986;2023-05-14T13:22:20;19.00;99.90
5588;DHT22;2816;49.778;9.986;2023-05-14T13:24:47;18.50;99.90
5588;DHT22;2816;49.778;9.986;2023-05-14T13:27:15;18.50;99.90
5588;DHT22;2816;49.778;9.986;2023-05-14T13:29:42;18.20;99.90
5588;DHT22;2816;49.778;9.986;2023-05-14T13:32:09;18.10;99.90
5588;DHT22;2816;49.778;9.986;2023-05-14T13:34:36;18.20;99.90
5588;DHT22;2816;49.778;9.986;2023-05-14T13:37:04;18.10;99.90
5588;DHT22;2816;49.778;9.986;2023-05-14T13:39:31;18.50;99.90
5588;DHT22;2816;49.778;9.986;2023-05-14T13:42:00;18.80;99.90
5588;DHT22;2816;49.778;9.986;2023-05-14T13:44:28;19.20;99.90
5588;DHT22;2816;49.778;9.986;2023-05-14T13:46:55;19.60;98.90
5588;DHT22;2816;49.778;9.986;2023-05-14T13:49:22;19.70;99.20
5588;DHT22;2816;49.778;9.986;2023-05-14T13:51:50;19.80;98.90
5588;DHT22;2816;49.778;9.986;2023-05-14T13:54:17;19.60;98.60
5588;DHT22;2816;49.778;9.986;2023-05-14T13:56:43;20.10;97.70
5588;DHT22;2816;49.778;9.986;2023-05-14T13:59:10;20.00;97.60
5588;DHT22;2816;49.778;9.986;2023-05-14T14:01:39;19.90;97.50
5588;DHT22;2816;49.778;9.986;2023-05-14T14:04:08;19.80;98.20
5588;DHT22;2816;49.778;9.986;2023-05-14T14:06:35;20.10;97.80
5588;DHT22;2816;49.778;9.986;2023-05-14T14:09:02;20.10;97.30
5588;DHT22;2816;49.778;9.986;2023-05-14T14:11:29;20.00;97.30
5588;DHT22;2816;49.778;9.986;2023-05-14T14:13:56;19.90;97.50
5588;DHT22;2816;49.778;9.986;2023-05-14T14:16:25;20.00;98.10
5588;DHT22;2816;49.778;9.986;2023-05-14T14:18:53;20.20;97.90
5588;DHT22;2816;49.778;9.986;2023-05-14T14:21:20;20.00;97.90
5588;DHT22;2816;49.778;9.986;2023-05-14T14:23:47;20.00;97.90
5588;DHT22;2816;49.778;9.986;2023-05-14T14:26:14;20.00;97.80
5588;DHT22;2816;49.778;9.986;2023-05-14T14:28:41;20.20;96.90
5588;DHT22;2816;49.778;9.986;2023-05-14T14:31:08;20.30;96.40
5588;DHT22;2816;49.778;9.986;2023-05-14T14:33:35;20.20;97.50
5588;DHT22;2816;49.778;9.986;2023-05-14T14:36:04;19.70;97.20
5588;DHT22;2816;49.778;9.986;2023-05-14T14:38:32;19.60;97.70
5588;DHT22;2816;49.778;9.986;2023-05-14T14:40:59;19.40;97.50
5588;DHT22;2816;49.778;9.986;2023-05-14T14:43:27;19.50;97.70
5588;DHT22;2816;49.778;9.986;2023-05-14T14:45:54;19.40;97.50
5588;DHT22;2816;49.778;9.986;2023-05-14T14:48:23;19.40;97.40
5588;DHT22;2816;49.778;9.986;2023-05-14T14:50:51;19.30;99.40
5588;DHT22;2816;49.778;9.986;2023-05-14T14:53:19;19.60;98.50
5588;DHT22;2816;49.778;9.986;2023-05-14T14:55:47;19.70;99.10
5588;DHT22;2816;49.778;9.986;2023-05-14T14:58:15;19.90;97.50
5588;DHT22;2816;49.778;9.986;2023-05-14T15:00:42;19.70;97.80
5588;DHT22;2816;49.778;9.986;2023-05-14T15:03:10;19.50;97.70
5588;DHT22;2816;49.778;9.986;2023-05-14T15:05:39;19.50;97.50
5588;DHT22;2816;49.778;9.986;2023-05-14T15:08:06;19.60;98.30
5588;DHT22;2816;49.778;9.986;2023-05-14T15:10:35;19.50;97.70
5588;DHT22;2816;49.778;9.986;2023-05-14T15:13:03;19.60;97.50
5588;DHT22;2816;49.778;9.986;2023-05-14T15:15:31;19.40;97.20
5588;DHT22;2816;49.778;9.986;2023-05-14T15:17:58;19.90;96.90
5588;DHT22;2816;49.778;9.986;2023-05-14T15:20:25;19.60;97.10
5588;DHT22;2816;49.778;9.986;2023-05-14T15:22:52;19.60;96.90
5588;DHT22;2816;49.778;9.986;2023-05-14T15:25:19;19.70;97.30
5588;DHT22;2816;49.778;9.986;2023-05-14T15:27:48;19.80;98.00
5588;DHT22;2816;49.778;9.986;2023-05-14T15:30:15;20.00;97.40
5588;DHT22;2816;49.778;9.986;2023-05-14T15:32:43;20.00;96.70
5588;DHT22;2816;49.778;9.986;2023-05-14T15:35:11;20.00;97.60
5588;DHT22;2816;49.778;9.986;2023-05-14T15:37:38;19.60;96.80
5588;DHT22;2816;49.778;9.986;2023-05-14T15:40:06;19.70;97.20
5588;DHT22;2816;49.778;9.986;2023-05-14T15:42:35;19.80;97.10
5588;DHT22;2816;49.778;9.986;2023-05-14T15:45:04;19.50;96.90
5588;DHT22;2816;49.778;9.986;2023-05-14T15:47:31;19.50;96.80
5588;DHT22;2816;49.778;9.986;2023-05-14T15:49:58;19.40;97.40
5588;DHT22;2816;49.778;9.986;2023-05-14T15:52:27;19.50;97.10
5588;DHT22;2816;49.778;9.986;2023-05-14T15:54:54;19.40;97.10
5588;DHT22;2816;49.778;9.986;2023-05-14T15:57:23;19.30;97.30
5588;DHT22;2816;49.778;9.986;2023-05-14T15:59:50;19.40;97.50
5588;DHT22;2816;49.778;9.986;2023-05-14T16:02:18;19.40;97.30
5588;DHT22;2816;49.778;9.986;2023-05-14T16:04:45;19.60;98.70
5588;DHT22;2816;49.778;9.986;2023-05-14T16:07:15;19.40;97.40
5588;DHT22;2816;49.778;9.986;2023-05-14T16:09:42;19.30;97.40
5588;DHT22;2816;49.778;9.986;2023-05-14T16:12:08;19.10;97.90